sensor_id;sensor_type;location;lat;lon;timestamp;pressure;altitude;pressure_sealevel;temperature;humidity
61674;BME280;47573;43.832;5.974;2022-08-25T00:02:53;95268.47;;;29.77;45.57
61674;BME280;47573;43.832;5.974;2022-08-25T00:07:54;95277.31;;;29.79;45.58
61674;BME280;47573;43.832;5.974;2022-08-25T00:12:56;95269.28;;;29.83;45.65
61674;BME280;47573;43.832;5.974;2022-08-25T00:17:56;95269.59;;;29.81;45.48
61674;BME280;47573;43.832;5.974;2022-08-25T00:22:57;95273.94;;;29.87;45.25
61674;BME280;47573;43.832;5.974;2022-08-25T00:27:59;95280.53;;;29.86;45.56
61674;BME280;47573;43.832;5.974;2022-08-25T00:33:00;95274.25;;;29.81;45.79
61674;BME280;47573;43.832;5.974;2022-08-25T00:38:01;95282.72;;;29.89;45.61
61674;BME280;47573;43.832;5.974;2022-08-25T00:43:02;95278.38;;;29.83;45.84
61674;BME280;47573;43.832;5.974;2022-08-25T00:48:04;95276.06;;;29.95;45.43
61674;BME280;47573;43.832;5.974;2022-08-25T00:53:06;95274.41;;;29.94;45.67
61674;BME280;47573;43.832;5.974;2022-08-25T00:58:11;95266.44;;;29.93;45.70
61674;BME280;47573;43.832;5.974;2022-08-25T01:03:12;95271.31;;;30.01;45.47
61674;BME280;47573;43.832;5.974;2022-08-25T01:08:14;95276.06;;;29.95;45.64
61674;BME280;47573;43.832;5.974;2022-08-25T01:13:20;95271.84;;;30.03;45.45
61674;BME280;47573;43.832;5.974;2022-08-25T01:18:22;95262.00;;;29.97;45.87
61674;BME280;47573;43.832;5.974;2022-08-25T01:23:25;95271.03;;;30.02;45.72
61674;BME280;47573;43.832;5.974;2022-08-25T01:28:26;95262.53;;;29.99;45.71
61674;BME280;47573;43.832;5.974;2022-08-25T01:33:26;95272.72;;;29.98;45.74
61674;BME280;47573;43.832;5.974;2022-08-25T01:38:29;95276.53;;;30.02;45.87
61674;BME280;47573;43.832;5.974;2022-08-25T01:43:34;95271.63;;;29.99;45.84
61674;BME280;47573;43.832;5.974;2022-08-25T01:48:36;95266.13;;;29.99;45.95
61674;BME280;47573;43.832;5.974;2022-08-25T01:53:38;95259.53;;;29.95;46.07
61674;BME280;47573;43.832;5.974;2022-08-25T01:58:40;95273.22;;;30.05;46.04
61674;BME280;47573;43.832;5.974;2022-08-25T02:03:42;95274.59;;;30.03;45.89
61674;BME280;47573;43.832;5.974;2022-08-25T02:08:49;95272.69;;;30.03;45.90
61674;BME280;47573;43.832;5.974;2022-08-25T02:13:50;95280.41;;;30.01;46.09
61674;BME280;47573;43.832;5.974;2022-08-25T02:18:51;95275.47;;;29.98;46.37
61674;BME280;47573;43.832;5.974;2022-08-25T02:23:53;95265.81;;;30.01;46.28
61674;BME280;47573;43.832;5.974;2022-08-25T02:28:53;95267.19;;;30.03;46.18
61674;BME280;47573;43.832;5.974;2022-08-25T02:33:55;95252.28;;;30.04;46.42
61674;BME280;47573;43.832;5.974;2022-08-25T02:38:57;95252.88;;;30.01;46.46
61674;BME280;47573;43.832;5.974;2022-08-25T02:43:58;95248.53;;;29.95;46.48
61674;BME280;47573;43.832;5.974;2022-08-25T02:48:59;95246.88;;;29.94;46.75
61674;BME280;47573;43.832;5.974;2022-08-25T02:54:02;95245.25;;;29.93;46.56
61674;BME280;47573;43.832;5.974;2022-08-25T02:59:04;95243.59;;;29.92;46.73
61674;BME280;47573;43.832;5.974;2022-08-25T03:04:05;95237.78;;;29.94;46.82
61674;BME280;47573;43.832;5.974;2022-08-25T03:09:07;95235.94;;;29.89;46.83
61674;BME280;47573;43.832;5.974;2022-08-25T03:14:08;95232.56;;;29.92;46.81
61674;BME280;47573;43.832;5.974;2022-08-25T03:19:09;95232.91;;;29.86;47.07
61674;BME280;47573;43.832;5.974;2022-08-25T03:24:11;95225.13;;;29.98;46.86
61674;BME280;47573;43.832;5.974;2022-08-25T03:29:11;95225.38;;;29.96;46.78
61674;BME280;47573;43.832;5.974;2022-08-25T03:34:12;95216.66;;;29.89;47.08
61674;BME280;47573;43.832;5.974;2022-08-25T03:39:15;95211.94;;;29.90;46.94
61674;BME280;47573;43.832;5.974;2022-08-25T03:44:16;95203.94;;;29.93;47.00
61674;BME280;47573;43.832;5.974;2022-08-25T03:49:19;95204.00;;;29.88;47.01
61674;BME280;47573;43.832;5.974;2022-08-25T03:54:24;95196.84;;;29.87;47.15
61674;BME280;47573;43.832;5.974;2022-08-25T03:59:24;95201.75;;;29.90;46.89
61674;BME280;47573;43.832;5.974;2022-08-25T04:04:25;95188.28;;;29.89;47.02
61674;BME280;47573;43.832;5.974;2022-08-25T04:09:27;95198.00;;;29.81;47.09
61674;BME280;47573;43.832;5.974;2022-08-25T04:14:27;95200.41;;;29.88;46.97
61674;BME280;47573;43.832;5.974;2022-08-25T04:19:28;95199.53;;;29.92;47.00
61674;BME280;47573;43.832;5.974;2022-08-25T04:24:29;95203.41;;;29.91;47.20
61674;BME280;47573;43.832;5.974;2022-08-25T04:29:30;95200.16;;;29.84;47.23
61674;BME280;47573;43.832;5.974;2022-08-25T04:34:31;95190.53;;;29.87;47.01
61674;BME280;47573;43.832;5.974;2022-08-25T04:39:33;95202.34;;;29.87;47.06
61674;BME280;47573;43.832;5.974;2022-08-25T04:44:33;95210.66;;;29.82;47.20
61674;BME280;47573;43.832;5.974;2022-08-25T04:49:34;95213.94;;;29.84;47.04
61674;BME280;47573;43.832;5.974;2022-08-25T04:54:36;95207.88;;;29.87;47.05
61674;BME280;47573;43.832;5.974;2022-08-25T04:59:37;95211.19;;;29.84;47.19
61674;BME280;47573;43.832;5.974;2022-08-25T05:04:38;95210.09;;;29.85;47.31
61674;BME280;47573;43.832;5.974;2022-08-25T05:09:40;95206.44;;;29.90;47.11
61674;BME280;47573;43.832;5.974;2022-08-25T05:14:40;95217.41;;;29.95;46.99
61674;BME280;47573;43.832;5.974;2022-08-25T05:19:41;95216.16;;;29.82;47.35
61674;BME280;47573;43.832;5.974;2022-08-25T05:24:43;95212.53;;;29.87;47.32
61674;BME280;47573;43.832;5.974;2022-08-25T05:29:44;95215.59;;;29.85;47.25
61674;BME280;47573;43.832;5.974;2022-08-25T05:34:44;95219.34;;;29.94;47.31
61674;BME280;47573;43.832;5.974;2022-08-25T05:39:46;95221.34;;;29.89;47.37
61674;BME280;47573;43.832;5.974;2022-08-25T05:44:47;95233.16;;;29.89;47.59
61674;BME280;47573;43.832;5.974;2022-08-25T05:49:47;95232.09;;;29.85;47.82
61674;BME280;47573;43.832;5.974;2022-08-25T05:54:49;95225.53;;;29.81;47.89
61674;BME280;47573;43.832;5.974;2022-08-25T05:59:50;95220.03;;;29.81;47.88
61674;BME280;47573;43.832;5.974;2022-08-25T06:04:51;95226.25;;;29.58;48.30
61674;BME280;47573;43.832;5.974;2022-08-25T06:09:53;95231.75;;;29.58;48.60
61674;BME280;47573;43.832;5.974;2022-08-25T06:14:54;95228.41;;;29.61;48.50
61674;BME280;47573;43.832;5.974;2022-08-25T06:19:54;95234.13;;;29.70;48.37
61674;BME280;47573;43.832;5.974;2022-08-25T06:24:56;95242.09;;;29.71;48.44
61674;BME280;47573;43.832;5.974;2022-08-25T06:29:57;95239.91;;;29.73;48.21
61674;BME280;47573;43.832;5.974;2022-08-25T06:34:57;95241.44;;;29.89;47.76
61674;BME280;47573;43.832;5.974;2022-08-25T06:39:59;95235.72;;;29.81;48.39
61674;BME280;47573;43.832;5.974;2022-08-25T06:45:00;95230.53;;;29.74;48.77
61674;BME280;47573;43.832;5.974;2022-08-25T06:50:00;95234.38;;;29.73;48.71
61674;BME280;47573;43.832;5.974;2022-08-25T06:55:03;95232.72;;;29.72;49.25
61674;BME280;47573;43.832;5.974;2022-08-25T07:00:05;95245.91;;;29.80;48.58
61674;BME280;47573;43.832;5.974;2022-08-25T07:05:06;95246.47;;;29.77;48.53
61674;BME280;47573;43.832;5.974;2022-08-25T07:10:09;95243.97;;;29.81;48.38
61674;BME280;47573;43.832;5.974;2022-08-25T07:15:10;95242.66;;;29.73;47.45
61674;BME280;47573;43.832;5.974;2022-08-25T07:20:11;95249.28;;;29.67;47.30
61674;BME280;47573;43.832;5.974;2022-08-25T07:25:13;95245.81;;;29.90;46.22
61674;BME280;47573;43.832;5.974;2022-08-25T07:30:15;95253.78;;;29.92;48.11
61674;BME280;47573;43.832;5.974;2022-08-25T07:35:15;95253.94;;;30.05;47.39
61674;BME280;47573;43.832;5.974;2022-08-25T07:40:20;95269.63;;;30.05;47.23
61674;BME280;47573;43.832;5.974;2022-08-25T07:45:22;95268.56;;;30.01;47.73
61674;BME280;47573;43.832;5.974;2022-08-25T07:50:24;95274.03;;;30.06;47.31
61674;BME280;47573;43.832;5.974;2022-08-25T07:55:27;95275.97;;;30.05;47.84
61674;BME280;47573;43.832;5.974;2022-08-25T08:00:28;95287.06;;;29.95;48.20
61674;BME280;47573;43.832;5.974;2022-08-25T08:05:29;95287.00;;;30.05;47.83
61674;BME280;47573;43.832;5.974;2022-08-25T08:10:31;95285.59;;;30.08;47.80
61674;BME280;47573;43.832;5.974;2022-08-25T08:15:32;95280.09;;;30.08;48.02
61674;BME280;47573;43.832;5.974;2022-08-25T08:20:33;95277.59;;;30.06;48.39
61674;BME280;47573;43.832;5.974;2022-08-25T08:25:35;95277.59;;;30.06;47.88
61674;BME280;47573;43.832;5.974;2022-08-25T08:30:35;95281.19;;;30.07;48.42
61674;BME280;47573;43.832;5.974;2022-08-25T08:35:36;95285.31;;;30.04;48.16
61674;BME280;47573;43.832;5.974;2022-08-25T08:40:59;95281.72;;;30.09;47.87
61674;BME280;47573;43.832;5.974;2022-08-25T08:46:02;95285.81;;;30.11;47.79
61674;BME280;47573;43.832;5.974;2022-08-25T08:51:14;95280.81;;;30.18;47.61
61674;BME280;47573;43.832;5.974;2022-08-25T08:56:18;95278.09;;;30.13;47.52
61674;BME280;47573;43.832;5.974;2022-08-25T09:01:25;95274.41;;;30.23;47.54
61674;BME280;47573;43.832;5.974;2022-08-25T09:06:30;95278.59;;;30.21;47.52
61674;BME280;47573;43.832;5.974;2022-08-25T09:11:45;95271.34;;;30.30;47.39
61674;BME280;47573;43.832;5.974;2022-08-25T09:16:54;95270.00;;;30.27;47.29
61674;BME280;47573;43.832;5.974;2022-08-25T09:22:04;95266.94;;;30.29;47.37
61674;BME280;47573;43.832;5.974;2022-08-25T09:27:15;95261.34;;;30.39;46.99
61674;BME280;47573;43.832;5.974;2022-08-25T09:32:18;95258.06;;;30.37;47.10
61674;BME280;47573;43.832;5.974;2022-08-25T09:37:18;95250.28;;;30.44;46.45
61674;BME280;47573;43.832;5.974;2022-08-25T09:42:21;95256.66;;;30.63;46.48
61674;BME280;47573;43.832;5.974;2022-08-25T09:47:43;95262.59;;;30.51;47.18
61674;BME280;47573;43.832;5.974;2022-08-25T09:52:44;95255.09;;;30.57;46.85
61674;BME280;47573;43.832;5.974;2022-08-25T09:57:49;95250.75;;;30.51;46.75
61674;BME280;47573;43.832;5.974;2022-08-25T10:03:08;95255.81;;;30.44;47.33
61674;BME280;47573;43.832;5.974;2022-08-25T10:08:11;95247.81;;;30.42;47.59
61674;BME280;47573;43.832;5.974;2022-08-25T10:13:18;95239.47;;;30.71;47.13
61674;BME280;47573;43.832;5.974;2022-08-25T10:18:22;95227.22;;;30.87;46.40
61674;BME280;47573;43.832;5.974;2022-08-25T10:23:26;95231.53;;;30.93;46.39
61674;BME280;47573;43.832;5.974;2022-08-25T10:28:32;95217.81;;;30.88;46.86
61674;BME280;47573;43.832;5.974;2022-08-25T10:33:40;95215.91;;;30.83;46.76
61674;BME280;47573;43.832;5.974;2022-08-25T10:38:45;95209.78;;;30.91;46.63
61674;BME280;47573;43.832;5.974;2022-08-25T10:43:53;95212.91;;;30.80;46.86
61674;BME280;47573;43.832;5.974;2022-08-25T10:48:59;95203.13;;;30.92;46.63
61674;BME280;47573;43.832;5.974;2022-08-25T10:54:06;95200.00;;;30.99;46.45
61674;BME280;47573;43.832;5.974;2022-08-25T10:59:27;95188.00;;;30.90;46.57
61674;BME280;47573;43.832;5.974;2022-08-25T11:04:36;95180.25;;;30.92;46.69
61674;BME280;47573;43.832;5.974;2022-08-25T11:09:40;95176.03;;;31.00;46.64
61674;BME280;47573;43.832;5.974;2022-08-25T11:14:47;95178.16;;;31.03;46.35
61674;BME280;47573;43.832;5.974;2022-08-25T11:19:52;95168.63;;;30.95;46.46
61674;BME280;47573;43.832;5.974;2022-08-25T11:25:00;95166.63;;;31.01;46.36
61674;BME280;47573;43.832;5.974;2022-08-25T11:30:09;95145.00;;;31.08;46.11
61674;BME280;47573;43.832;5.974;2022-08-25T11:35:11;95158.72;;;31.13;46.27
61674;BME280;47573;43.832;5.974;2022-08-25T11:40:27;95149.13;;;31.10;46.18
61674;BME280;47573;43.832;5.974;2022-08-25T11:45:46;95135.03;;;31.12;46.19
61674;BME280;47573;43.832;5.974;2022-08-25T11:50:58;95128.09;;;31.14;46.01
61674;BME280;47573;43.832;5.974;2022-08-25T11:56:01;95127.56;;;31.12;46.36
61674;BME280;47573;43.832;5.974;2022-08-25T12:01:05;95125.25;;;31.19;45.93
61674;BME280;47573;43.832;5.974;2022-08-25T12:06:17;95115.63;;;31.17;45.93
61674;BME280;47573;43.832;5.974;2022-08-25T12:17:15;95107.66;;;31.15;45.92
61674;BME280;47573;43.832;5.974;2022-08-25T12:22:38;95108.69;;;31.19;46.09
61674;BME280;47573;43.832;5.974;2022-08-25T12:27:44;95101.44;;;31.23;45.98
61674;BME280;47573;43.832;5.974;2022-08-25T12:33:03;95103.00;;;31.29;46.09
61674;BME280;47573;43.832;5.974;2022-08-25T12:38:09;95097.06;;;31.22;46.33
61674;BME280;47573;43.832;5.974;2022-08-25T12:43:12;95089.44;;;31.33;46.16
61674;BME280;47573;43.832;5.974;2022-08-25T12:48:41;95087.59;;;31.28;45.97
61674;BME280;47573;43.832;5.974;2022-08-25T12:53:54;95077.28;;;31.34;46.21
61674;BME280;47573;43.832;5.974;2022-08-25T12:59:10;95067.28;;;31.38;45.70
61674;BME280;47573;43.832;5.974;2022-08-25T13:04:39;95070.94;;;31.33;46.11
61674;BME280;47573;43.832;5.974;2022-08-25T13:10:06;95063.16;;;31.35;45.76
61674;BME280;47573;43.832;5.974;2022-08-25T13:15:14;95051.53;;;31.38;46.00
61674;BME280;47573;43.832;5.974;2022-08-25T13:20:21;95052.00;;;31.45;45.90
61674;BME280;47573;43.832;5.974;2022-08-25T13:25:23;95046.91;;;31.52;45.49
61674;BME280;47573;43.832;5.974;2022-08-25T13:30:29;95047.53;;;31.49;45.67
61674;BME280;47573;43.832;5.974;2022-08-25T13:35:31;95042.59;;;31.46;45.77
61674;BME280;47573;43.832;5.974;2022-08-25T13:40:31;95039.13;;;31.54;46.12
61674;BME280;47573;43.832;5.974;2022-08-25T13:45:34;95044.38;;;31.37;45.96
61674;BME280;47573;43.832;5.974;2022-08-25T13:50:40;95033.22;;;31.47;46.17
61674;BME280;47573;43.832;5.974;2022-08-25T13:55:47;95024.63;;;31.49;46.22
61674;BME280;47573;43.832;5.974;2022-08-25T14:01:04;95032.06;;;31.48;45.88
61674;BME280;47573;43.832;5.974;2022-08-25T14:06:10;95015.00;;;31.46;46.24
61674;BME280;47573;43.832;5.974;2022-08-25T14:11:28;95016.13;;;31.45;45.88
61674;BME280;47573;43.832;5.974;2022-08-25T14:16:31;95013.78;;;31.52;46.21
61674;BME280;47573;43.832;5.974;2022-08-25T14:21:35;95005.81;;;31.51;46.21
61674;BME280;47573;43.832;5.974;2022-08-25T14:26:36;95000.59;;;31.49;45.88
61674;BME280;47573;43.832;5.974;2022-08-25T14:31:39;95006.63;;;31.51;46.04
61674;BME280;47573;43.832;5.974;2022-08-25T14:36:42;95014.81;;;31.56;45.85
61674;BME280;47573;43.832;5.974;2022-08-25T14:41:43;95024.81;;;31.52;45.92
61674;BME280;47573;43.832;5.974;2022-08-25T14:46:46;95014.72;;;31.61;46.17
61674;BME280;47573;43.832;5.974;2022-08-25T14:51:50;95017.69;;;31.65;46.11
61674;BME280;47573;43.832;5.974;2022-08-25T14:56:51;94995.41;;;31.61;46.18
61674;BME280;47573;43.832;5.974;2022-08-25T15:01:51;95001.13;;;31.65;46.13
61674;BME280;47573;43.832;5.974;2022-08-25T15:06:56;94995.59;;;31.65;46.21
61674;BME280;47573;43.832;5.974;2022-08-25T15:11:57;94977.59;;;31.67;45.74
61674;BME280;47573;43.832;5.974;2022-08-25T15:16:57;94969.31;;;31.67;45.73
61674;BME280;47573;43.832;5.974;2022-08-25T15:21:59;94969.25;;;31.73;45.92
61674;BME280;47573;43.832;5.974;2022-08-25T15:27:02;94971.59;;;31.33;45.68
61674;BME280;47573;43.832;5.974;2022-08-25T15:32:04;94968.72;;;31.57;45.63
61674;BME280;47573;43.832;5.974;2022-08-25T15:37:10;94968.63;;;31.62;45.12
61674;BME280;47573;43.832;5.974;2022-08-25T15:42:11;94964.28;;;31.83;43.73
61674;BME280;47573;43.832;5.974;2022-08-25T15:47:11;94962.06;;;31.71;43.57
61674;BME280;47573;43.832;5.974;2022-08-25T15:52:13;94956.53;;;31.71;42.30
61674;BME280;47573;43.832;5.974;2022-08-25T15:57:14;94955.28;;;32.18;40.84
61674;BME280;47573;43.832;5.974;2022-08-25T16:02:14;94954.63;;;31.99;41.89
61674;BME280;47573;43.832;5.974;2022-08-25T16:07:16;94957.16;;;31.96;41.34
61674;BME280;47573;43.832;5.974;2022-08-25T16:12:16;94948.53;;;32.24;40.41
61674;BME280;47573;43.832;5.974;2022-08-25T16:17:17;94956.97;;;32.06;40.55
61674;BME280;47573;43.832;5.974;2022-08-25T16:22:19;94959.34;;;32.48;38.34
61674;BME280;47573;43.832;5.974;2022-08-25T16:27:20;94952.25;;;32.06;39.71
61674;BME280;47573;43.832;5.974;2022-08-25T16:32:21;94945.78;;;32.11;38.75
61674;BME280;47573;43.832;5.974;2022-08-25T16:37:23;94944.38;;;32.00;38.62
61674;BME280;47573;43.832;5.974;2022-08-25T16:42:24;94946.22;;;32.40;37.96
61674;BME280;47573;43.832;5.974;2022-08-25T16:47:24;94936.50;;;32.07;39.22
61674;BME280;47573;43.832;5.974;2022-08-25T16:52:26;94944.16;;;32.59;36.07
61674;BME280;47573;43.832;5.974;2022-08-25T16:57:27;94936.38;;;32.61;35.31
61674;BME280;47573;43.832;5.974;2022-08-25T17:02:27;94932.97;;;32.28;35.74
61674;BME280;47573;43.832;5.974;2022-08-25T17:07:29;94933.84;;;32.51;35.38
61674;BME280;47573;43.832;5.974;2022-08-25T17:12:29;94935.19;;;32.40;35.74
61674;BME280;47573;43.832;5.974;2022-08-25T17:17:30;94935.00;;;32.36;36.05
61674;BME280;47573;43.832;5.974;2022-08-25T17:22:32;94938.28;;;32.25;36.52
61674;BME280;47573;43.832;5.974;2022-08-25T17:27:32;94946.69;;;32.20;37.34
61674;BME280;47573;43.832;5.974;2022-08-25T17:32:33;94947.31;;;32.17;38.02
61674;BME280;47573;43.832;5.974;2022-08-25T17:37:35;94948.78;;;32.01;38.76
61674;BME280;47573;43.832;5.974;2022-08-25T17:42:35;94967.59;;;31.99;40.71
61674;BME280;47573;43.832;5.974;2022-08-25T17:47:36;94967.00;;;31.75;42.38
61674;BME280;47573;43.832;5.974;2022-08-25T17:52:38;94974.66;;;31.64;43.98
61674;BME280;47573;43.832;5.974;2022-08-25T17:57:38;94981.47;;;31.53;45.07
61674;BME280;47573;43.832;5.974;2022-08-25T18:02:39;94999.34;;;31.42;45.90
61674;BME280;47573;43.832;5.974;2022-08-25T18:07:41;95006.56;;;31.24;47.14
61674;BME280;47573;43.832;5.974;2022-08-25T18:12:42;95004.31;;;31.26;47.69
61674;BME280;47573;43.832;5.974;2022-08-25T18:17:43;95013.09;;;31.28;47.73
61674;BME280;47573;43.832;5.974;2022-08-25T18:22:45;95014.06;;;31.05;48.47
61674;BME280;47573;43.832;5.974;2022-08-25T18:27:45;95017.13;;;31.04;49.01
61674;BME280;47573;43.832;5.974;2022-08-25T18:32:46;95012.72;;;31.03;49.72
61674;BME280;47573;43.832;5.974;2022-08-25T18:37:48;95019.91;;;30.85;50.37
61674;BME280;47573;43.832;5.974;2022-08-25T18:42:49;95021.41;;;30.16;52.89
61674;BME280;47573;43.832;5.974;2022-08-25T18:47:50;95028.75;;;29.79;54.19
61674;BME280;47573;43.832;5.974;2022-08-25T18:52:52;95029.66;;;29.69;55.38
61674;BME280;47573;43.832;5.974;2022-08-25T18:57:53;95031.22;;;29.80;55.43
61674;BME280;47573;43.832;5.974;2022-08-25T19:02:56;95042.22;;;29.80;55.70
61674;BME280;47573;43.832;5.974;2022-08-25T19:07:58;95049.22;;;30.15;54.92
61674;BME280;47573;43.832;5.974;2022-08-25T19:12:59;95053.69;;;30.35;53.79
61674;BME280;47573;43.832;5.974;2022-08-25T19:18:00;95059.88;;;30.45;52.93
61674;BME280;47573;43.832;5.974;2022-08-25T19:23:02;95056.34;;;30.40;52.41
61674;BME280;47573;43.832;5.974;2022-08-25T19:28:04;95062.47;;;30.13;52.63
61674;BME280;47573;43.832;5.974;2022-08-25T19:33:06;95067.75;;;30.09;52.57
61674;BME280;47573;43.832;5.974;2022-08-25T19:38:11;95055.09;;;29.85;53.12
61674;BME280;47573;43.832;5.974;2022-08-25T19:43:12;95063.06;;;29.86;52.71
61674;BME280;47573;43.832;5.974;2022-08-25T19:48:14;95065.44;;;29.98;52.13
61674;BME280;47573;43.832;5.974;2022-08-25T19:53:15;95072.78;;;30.26;51.09
61674;BME280;47573;43.832;5.974;2022-08-25T19:58:16;95059.31;;;30.25;51.36
61674;BME280;47573;43.832;5.974;2022-08-25T20:03:16;95062.34;;;30.23;51.22
61674;BME280;47573;43.832;5.974;2022-08-25T20:08:18;95053.94;;;30.14;51.24
61674;BME280;47573;43.832;5.974;2022-08-25T20:13:19;95055.56;;;30.15;51.36
61674;BME280;47573;43.832;5.974;2022-08-25T20:18:19;95060.59;;;30.08;51.08
61674;BME280;47573;43.832;5.974;2022-08-25T20:23:21;95065.03;;;30.04;51.20
61674;BME280;47573;43.832;5.974;2022-08-25T20:28:22;95064.13;;;30.14;50.96
61674;BME280;47573;43.832;5.974;2022-08-25T20:33:22;95074.09;;;30.10;50.96
61674;BME280;47573;43.832;5.974;2022-08-25T20:38:24;95076.06;;;30.04;51.15
61674;BME280;47573;43.832;5.974;2022-08-25T20:43:25;95071.50;;;30.18;50.82
61674;BME280;47573;43.832;5.974;2022-08-25T20:48:25;95068.75;;;30.18;51.08
61674;BME280;47573;43.832;5.974;2022-08-25T20:53:27;95067.88;;;29.99;51.66
61674;BME280;47573;43.832;5.974;2022-08-25T20:58:28;95068.56;;;30.10;51.17
61674;BME280;47573;43.832;5.974;2022-08-25T21:03:28;95069.97;;;30.07;51.22
61674;BME280;47573;43.832;5.974;2022-08-25T21:08:30;95065.75;;;30.39;50.15
61674;BME280;47573;43.832;5.974;2022-08-25T21:13:30;95067.47;;;30.35;50.53
61674;BME280;47573;43.832;5.974;2022-08-25T21:18:31;95058.16;;;30.31;50.13
61674;BME280;47573;43.832;5.974;2022-08-25T21:23:33;95069.09;;;30.36;50.14
61674;BME280;47573;43.832;5.974;2022-08-25T21:28:34;95057.50;;;30.39;49.97
61674;BME280;47573;43.832;5.974;2022-08-25T21:33:35;95052.97;;;30.48;50.17
61674;BME280;47573;43.832;5.974;2022-08-25T21:38:37;95047.97;;;30.50;49.72
61674;BME280;47573;43.832;5.974;2022-08-25T21:43:37;95047.44;;;30.48;50.25
61674;BME280;47573;43.832;5.974;2022-08-25T21:48:38;95055.06;;;30.56;49.94
61674;BME280;47573;43.832;5.974;2022-08-25T21:53:40;95067.00;;;30.46;49.95
61674;BME280;47573;43.832;5.974;2022-08-25T21:58:42;95068.22;;;30.59;49.59
61674;BME280;47573;43.832;5.974;2022-08-25T22:03:43;95065.47;;;30.59;49.99
61674;BME280;47573;43.832;5.974;2022-08-25T22:08:45;95075.00;;;30.48;50.24
61674;BME280;47573;43.832;5.974;2022-08-25T22:13:47;95063.53;;;30.78;49.53
61674;BME280;47573;43.832;5.974;2022-08-25T22:18:48;95059.03;;;30.87;49.15
61674;BME280;47573;43.832;5.974;2022-08-25T22:23:50;95057.66;;;30.84;49.23
61674;BME280;47573;43.832;5.974;2022-08-25T22:28:51;95062.94;;;30.81;49.67
61674;BME280;47573;43.832;5.974;2022-08-25T22:33:52;95048.19;;;31.09;48.92
61674;BME280;47573;43.832;5.974;2022-08-25T22:38:55;95043.88;;;31.03;48.77
61674;BME280;47573;43.832;5.974;2022-08-25T22:43:56;95029.34;;;30.98;49.13
61674;BME280;47573;43.832;5.974;2022-08-25T22:48:58;95040.16;;;30.94;48.99
61674;BME280;47573;43.832;5.974;2022-08-25T22:53:59;95036.50;;;30.99;49.12
61674;BME280;47573;43.832;5.974;2022-08-25T22:59:01;95029.72;;;30.91;49.58
61674;BME280;47573;43.832;5.974;2022-08-25T23:04:04;95035.47;;;30.94;49.20
61674;BME280;47573;43.832;5.974;2022-08-25T23:09:07;95027.13;;;31.00;49.07
61674;BME280;47573;43.832;5.974;2022-08-25T23:14:08;95028.69;;;30.87;49.62
61674;BME280;47573;43.832;5.974;2022-08-25T23:19:11;95022.19;;;30.97;48.89
61674;BME280;47573;43.832;5.974;2022-08-25T23:24:14;95024.22;;;30.91;49.33
61674;BME280;47573;43.832;5.974;2022-08-25T23:29:15;95030.94;;;30.85;49.50
61674;BME280;47573;43.832;5.974;2022-08-25T23:34:16;95026.97;;;30.91;49.32
61674;BME280;47573;43.832;5.974;2022-08-25T23:39:18;95012.19;;;30.82;49.36
61674;BME280;47573;43.832;5.974;2022-08-25T23:44:20;95018.38;;;30.74;49.58
61674;BME280;47573;43.832;5.974;2022-08-25T23:49:22;95009.59;;;30.72;50.03
61674;BME280;47573;43.832;5.974;2022-08-25T23:54:24;95010.69;;;30.71;50.00
61674;BME280;47573;43.832;5.974;2022-08-25T23:59:25;95002.44;;;30.71;50.35
